sensor_id;sensor_type;location;lat;lon;timestamp;P1;durP1;ratioP1;P2;durP2;ratioP2
3769;SDS011;1900;48.890;9.190;2022-12-20T00:01:30;21.00;;;13.00;;
3769;SDS011;1900;48.890;9.190;2022-12-20T00:03:58;21.83;;;12.60;;
3769;SDS011;1900;48.890;9.190;2022-12-20T00:06:26;19.73;;;12.80;;
3769;SDS011;1900;48.890;9.190;2022-12-20T00:08:53;20.80;;;14.27;;
3769;SDS011;1900;48.890;9.190;2022-12-20T00:11:20;25.10;;;14.30;;
3769;SDS011;1900;48.890;9.190;2022-12-20T00:13:46;22.13;;;13.70;;
3769;SDS011;1900;48.890;9.190;2022-12-20T00:16:14;24.73;;;14.10;;
3769;SDS011;1900;48.890;9.190;2022-12-20T00:18:43;22.80;;;13.17;;
3769;SDS011;1900;48.890;9.190;2022-12-20T00:21:10;20.73;;;13.40;;
3769;SDS011;1900;48.890;9.190;2022-12-20T00:23:37;24.70;;;13.03;;
3769;SDS011;1900;48.890;9.190;2022-12-20T00:28:42;23.73;;;12.80;;
3769;SDS011;1900;48.890;9.190;2022-12-20T00:31:10;22.50;;;13.30;;
3769;SDS011;1900;48.890;9.190;2022-12-20T00:33:37;26.90;;;15.43;;
3769;SDS011;1900;48.890;9.190;2022-12-20T00:36:04;21.77;;;13.20;;
3769;SDS011;1900;48.890;9.190;2022-12-20T00:38:31;21.10;;;13.53;;
3769;SDS011;1900;48.890;9.190;2022-12-20T00:40:58;22.73;;;14.43;;
3769;SDS011;1900;48.890;9.190;2022-12-20T00:43:24;28.80;;;14.83;;
3769;SDS011;1900;48.890;9.190;2022-12-20T00:45:50;22.20;;;13.23;;
3769;SDS011;1900;48.890;9.190;2022-12-20T00:48:16;20.50;;;13.10;;
3769;SDS011;1900;48.890;9.190;2022-12-20T00:50:41;30.47;;;13.70;;
3769;SDS011;1900;48.890;9.190;2022-12-20T00:53:07;27.67;;;14.70;;
3769;SDS011;1900;48.890;9.190;2022-12-20T00:55:34;23.73;;;13.87;;
3769;SDS011;1900;48.890;9.190;2022-12-20T00:58:06;21.23;;;14.57;;
3769;SDS011;1900;48.890;9.190;2022-12-20T01:00:32;25.77;;;14.10;;
3769;SDS011;1900;48.890;9.190;2022-12-20T01:02:57;27.40;;;14.40;;
3769;SDS011;1900;48.890;9.190;2022-12-20T01:05:23;25.90;;;14.77;;
3769;SDS011;1900;48.890;9.190;2022-12-20T01:07:49;24.33;;;14.13;;
3769;SDS011;1900;48.890;9.190;2022-12-20T01:10:14;23.40;;;13.80;;
3769;SDS011;1900;48.890;9.190;2022-12-20T01:12:40;26.80;;;15.63;;
3769;SDS011;1900;48.890;9.190;2022-12-20T01:15:06;24.90;;;13.67;;
3769;SDS011;1900;48.890;9.190;2022-12-20T01:17:32;23.20;;;13.03;;
3769;SDS011;1900;48.890;9.190;2022-12-20T01:19:59;19.27;;;13.20;;
3769;SDS011;1900;48.890;9.190;2022-12-20T01:22:25;24.73;;;14.13;;
3769;SDS011;1900;48.890;9.190;2022-12-20T01:24:50;23.37;;;15.50;;
3769;SDS011;1900;48.890;9.190;2022-12-20T01:27:16;22.70;;;14.10;;
3769;SDS011;1900;48.890;9.190;2022-12-20T01:29:41;24.93;;;14.87;;
3769;SDS011;1900;48.890;9.190;2022-12-20T01:32:07;19.37;;;12.50;;
3769;SDS011;1900;48.890;9.190;2022-12-20T01:34:33;22.80;;;12.33;;
3769;SDS011;1900;48.890;9.190;2022-12-20T01:36:58;21.80;;;13.40;;
3769;SDS011;1900;48.890;9.190;2022-12-20T01:39:24;20.30;;;12.83;;
3769;SDS011;1900;48.890;9.190;2022-12-20T01:41:50;19.63;;;12.73;;
3769;SDS011;1900;48.890;9.190;2022-12-20T01:46:45;21.20;;;14.00;;
3769;SDS011;1900;48.890;9.190;2022-12-20T01:54:24;22.17;;;13.60;;
3769;SDS011;1900;48.890;9.190;2022-12-20T01:56:56;23.63;;;14.60;;
3769;SDS011;1900;48.890;9.190;2022-12-20T01:59:25;20.47;;;14.40;;
3769;SDS011;1900;48.890;9.190;2022-12-20T02:01:52;20.47;;;13.87;;
3769;SDS011;1900;48.890;9.190;2022-12-20T02:04:23;22.87;;;13.30;;
3769;SDS011;1900;48.890;9.190;2022-12-20T02:06:49;22.00;;;13.57;;
3769;SDS011;1900;48.890;9.190;2022-12-20T02:09:14;23.90;;;13.37;;
3769;SDS011;1900;48.890;9.190;2022-12-20T02:11:47;24.97;;;13.20;;
3769;SDS011;1900;48.890;9.190;2022-12-20T02:19:52;22.23;;;13.67;;
3769;SDS011;1900;48.890;9.190;2022-12-20T02:22:38;23.50;;;13.80;;
3769;SDS011;1900;48.890;9.190;2022-12-20T02:31:24;21.67;;;12.90;;
3769;SDS011;1900;48.890;9.190;2022-12-20T02:33:58;24.87;;;14.77;;
3769;SDS011;1900;48.890;9.190;2022-12-20T02:36:26;24.93;;;13.70;;
3769;SDS011;1900;48.890;9.190;2022-12-20T02:38:51;26.57;;;14.20;;
3769;SDS011;1900;48.890;9.190;2022-12-20T02:41:22;24.70;;;13.63;;
3769;SDS011;1900;48.890;9.190;2022-12-20T02:44:01;23.07;;;13.27;;
3769;SDS011;1900;48.890;9.190;2022-12-20T02:46:49;23.40;;;15.77;;
3769;SDS011;1900;48.890;9.190;2022-12-20T02:49:17;18.07;;;12.60;;
3769;SDS011;1900;48.890;9.190;2022-12-20T02:51:46;22.93;;;13.50;;
3769;SDS011;1900;48.890;9.190;2022-12-20T02:54:18;24.23;;;14.30;;
3769;SDS011;1900;48.890;9.190;2022-12-20T02:56:50;24.73;;;13.40;;
3769;SDS011;1900;48.890;9.190;2022-12-20T02:59:29;23.80;;;14.10;;
3769;SDS011;1900;48.890;9.190;2022-12-20T03:02:01;20.83;;;12.23;;
3769;SDS011;1900;48.890;9.190;2022-12-20T03:04:28;21.20;;;14.10;;
3769;SDS011;1900;48.890;9.190;2022-12-20T03:07:00;19.10;;;11.93;;
3769;SDS011;1900;48.890;9.190;2022-12-20T03:09:29;21.33;;;12.73;;
3769;SDS011;1900;48.890;9.190;2022-12-20T03:11:56;20.93;;;12.73;;
3769;SDS011;1900;48.890;9.190;2022-12-20T03:14:22;22.30;;;14.23;;
3769;SDS011;1900;48.890;9.190;2022-12-20T03:16:50;24.27;;;13.30;;
3769;SDS011;1900;48.890;9.190;2022-12-20T03:19:16;21.83;;;14.47;;
3769;SDS011;1900;48.890;9.190;2022-12-20T03:21:42;23.40;;;12.17;;
3769;SDS011;1900;48.890;9.190;2022-12-20T03:24:08;20.57;;;13.17;;
3769;SDS011;1900;48.890;9.190;2022-12-20T03:26:38;22.60;;;13.17;;
3769;SDS011;1900;48.890;9.190;2022-12-20T03:29:08;23.90;;;14.17;;
3769;SDS011;1900;48.890;9.190;2022-12-20T03:31:34;21.37;;;12.80;;
3769;SDS011;1900;48.890;9.190;2022-12-20T03:34:03;21.83;;;12.67;;
3769;SDS011;1900;48.890;9.190;2022-12-20T03:36:30;20.20;;;12.20;;
3769;SDS011;1900;48.890;9.190;2022-12-20T03:39:00;24.10;;;13.17;;
3769;SDS011;1900;48.890;9.190;2022-12-20T03:41:29;19.40;;;12.07;;
3769;SDS011;1900;48.890;9.190;2022-12-20T03:43:58;22.30;;;13.50;;
3769;SDS011;1900;48.890;9.190;2022-12-20T03:46:24;21.20;;;12.37;;
3769;SDS011;1900;48.890;9.190;2022-12-20T03:48:50;23.27;;;12.27;;
3769;SDS011;1900;48.890;9.190;2022-12-20T03:51:16;21.87;;;13.23;;
3769;SDS011;1900;48.890;9.190;2022-12-20T03:53:41;21.37;;;12.60;;
3769;SDS011;1900;48.890;9.190;2022-12-20T03:56:07;20.60;;;12.03;;
3769;SDS011;1900;48.890;9.190;2022-12-20T03:58:35;19.83;;;10.90;;
3769;SDS011;1900;48.890;9.190;2022-12-20T04:01:01;18.07;;;11.10;;
3769;SDS011;1900;48.890;9.190;2022-12-20T04:03:37;22.43;;;13.20;;
3769;SDS011;1900;48.890;9.190;2022-12-20T04:06:03;18.60;;;11.17;;
3769;SDS011;1900;48.890;9.190;2022-12-20T04:08:31;16.80;;;10.83;;
3769;SDS011;1900;48.890;9.190;2022-12-20T04:10:57;17.73;;;10.57;;
3769;SDS011;1900;48.890;9.190;2022-12-20T04:14:01;14.50;;;9.97;;
3769;SDS011;1900;48.890;9.190;2022-12-20T04:16:28;18.30;;;10.60;;
3769;SDS011;1900;48.890;9.190;2022-12-20T04:18:54;17.70;;;11.17;;
3769;SDS011;1900;48.890;9.190;2022-12-20T04:21:30;20.63;;;11.23;;
3769;SDS011;1900;48.890;9.190;2022-12-20T04:23:58;15.10;;;9.73;;
3769;SDS011;1900;48.890;9.190;2022-12-20T04:26:35;15.87;;;11.00;;
3769;SDS011;1900;48.890;9.190;2022-12-20T04:29:02;16.40;;;10.43;;
3769;SDS011;1900;48.890;9.190;2022-12-20T04:31:28;16.53;;;10.87;;
3769;SDS011;1900;48.890;9.190;2022-12-20T04:33:54;17.13;;;10.93;;
3769;SDS011;1900;48.890;9.190;2022-12-20T04:36:20;16.00;;;9.83;;
3769;SDS011;1900;48.890;9.190;2022-12-20T04:38:48;20.23;;;11.07;;
3769;SDS011;1900;48.890;9.190;2022-12-20T04:41:18;19.03;;;10.93;;
3769;SDS011;1900;48.890;9.190;2022-12-20T04:43:50;16.77;;;10.43;;
3769;SDS011;1900;48.890;9.190;2022-12-20T04:46:18;18.30;;;10.67;;
3769;SDS011;1900;48.890;9.190;2022-12-20T04:48:45;16.20;;;10.57;;
3769;SDS011;1900;48.890;9.190;2022-12-20T04:51:11;15.70;;;10.80;;
3769;SDS011;1900;48.890;9.190;2022-12-20T04:53:37;18.80;;;10.67;;
3769;SDS011;1900;48.890;9.190;2022-12-20T04:56:25;18.83;;;9.33;;
3769;SDS011;1900;48.890;9.190;2022-12-20T04:58:55;16.80;;;9.67;;
3769;SDS011;1900;48.890;9.190;2022-12-20T05:01:22;14.80;;;9.90;;
3769;SDS011;1900;48.890;9.190;2022-12-20T05:03:49;16.53;;;9.70;;
3769;SDS011;1900;48.890;9.190;2022-12-20T05:06:15;14.70;;;10.27;;
3769;SDS011;1900;48.890;9.190;2022-12-20T05:08:41;17.10;;;10.90;;
3769;SDS011;1900;48.890;9.190;2022-12-20T05:11:07;15.90;;;10.17;;
3769;SDS011;1900;48.890;9.190;2022-12-20T05:13:34;16.87;;;10.80;;
3769;SDS011;1900;48.890;9.190;2022-12-20T05:16:01;15.80;;;10.20;;
3769;SDS011;1900;48.890;9.190;2022-12-20T05:18:30;18.10;;;9.90;;
3769;SDS011;1900;48.890;9.190;2022-12-20T05:21:00;14.47;;;9.20;;
3769;SDS011;1900;48.890;9.190;2022-12-20T05:23:47;20.10;;;10.30;;
3769;SDS011;1900;48.890;9.190;2022-12-20T05:26:45;16.60;;;10.20;;
3769;SDS011;1900;48.890;9.190;2022-12-20T05:29:11;18.93;;;10.17;;
3769;SDS011;1900;48.890;9.190;2022-12-20T05:31:36;16.97;;;9.77;;
3769;SDS011;1900;48.890;9.190;2022-12-20T05:34:02;18.73;;;10.07;;
3769;SDS011;1900;48.890;9.190;2022-12-20T05:36:31;15.10;;;9.00;;
3769;SDS011;1900;48.890;9.190;2022-12-20T05:38:59;14.23;;;8.97;;
3769;SDS011;1900;48.890;9.190;2022-12-20T05:41:25;16.37;;;8.90;;
3769;SDS011;1900;48.890;9.190;2022-12-20T05:43:51;16.90;;;9.20;;
3769;SDS011;1900;48.890;9.190;2022-12-20T05:46:17;18.93;;;10.10;;
3769;SDS011;1900;48.890;9.190;2022-12-20T05:48:51;17.50;;;10.30;;
3769;SDS011;1900;48.890;9.190;2022-12-20T05:51:19;15.03;;;9.93;;
3769;SDS011;1900;48.890;9.190;2022-12-20T05:54:08;13.00;;;9.30;;
3769;SDS011;1900;48.890;9.190;2022-12-20T05:56:40;16.93;;;9.30;;
3769;SDS011;1900;48.890;9.190;2022-12-20T05:59:06;18.10;;;9.07;;
3769;SDS011;1900;48.890;9.190;2022-12-20T06:01:32;14.20;;;8.43;;
3769;SDS011;1900;48.890;9.190;2022-12-20T06:03:59;15.13;;;9.70;;
3769;SDS011;1900;48.890;9.190;2022-12-20T06:06:25;13.13;;;9.20;;
3769;SDS011;1900;48.890;9.190;2022-12-20T06:08:51;16.50;;;8.87;;
3769;SDS011;1900;48.890;9.190;2022-12-20T06:11:26;14.50;;;8.33;;
3769;SDS011;1900;48.890;9.190;2022-12-20T06:13:59;13.10;;;8.73;;
3769;SDS011;1900;48.890;9.190;2022-12-20T06:16:25;14.57;;;7.73;;
3769;SDS011;1900;48.890;9.190;2022-12-20T06:18:54;14.53;;;8.70;;
3769;SDS011;1900;48.890;9.190;2022-12-20T06:21:20;13.70;;;8.83;;
3769;SDS011;1900;48.890;9.190;2022-12-20T06:23:46;13.33;;;8.57;;
3769;SDS011;1900;48.890;9.190;2022-12-20T06:26:13;14.77;;;8.10;;
3769;SDS011;1900;48.890;9.190;2022-12-20T06:28:45;14.20;;;8.57;;
3769;SDS011;1900;48.890;9.190;2022-12-20T06:31:18;12.47;;;7.73;;
3769;SDS011;1900;48.890;9.190;2022-12-20T06:33:48;10.33;;;7.80;;
3769;SDS011;1900;48.890;9.190;2022-12-20T06:36:15;15.33;;;9.50;;
3769;SDS011;1900;48.890;9.190;2022-12-20T06:38:41;15.70;;;9.70;;
3769;SDS011;1900;48.890;9.190;2022-12-20T06:41:07;11.83;;;7.77;;
3769;SDS011;1900;48.890;9.190;2022-12-20T06:43:33;14.83;;;8.37;;
3769;SDS011;1900;48.890;9.190;2022-12-20T06:45:58;12.50;;;7.67;;
3769;SDS011;1900;48.890;9.190;2022-12-20T06:48:24;14.53;;;8.77;;
3769;SDS011;1900;48.890;9.190;2022-12-20T06:50:50;16.40;;;8.50;;
3769;SDS011;1900;48.890;9.190;2022-12-20T06:53:17;17.53;;;8.80;;
3769;SDS011;1900;48.890;9.190;2022-12-20T06:55:46;18.20;;;9.67;;
3769;SDS011;1900;48.890;9.190;2022-12-20T06:58:15;11.10;;;8.60;;
3769;SDS011;1900;48.890;9.190;2022-12-20T07:00:41;12.33;;;8.20;;
3769;SDS011;1900;48.890;9.190;2022-12-20T07:03:07;15.33;;;9.07;;
3769;SDS011;1900;48.890;9.190;2022-12-20T07:05:32;11.93;;;8.53;;
3769;SDS011;1900;48.890;9.190;2022-12-20T07:07:58;18.00;;;8.57;;
3769;SDS011;1900;48.890;9.190;2022-12-20T07:10:24;12.43;;;8.60;;
3769;SDS011;1900;48.890;9.190;2022-12-20T07:12:51;15.00;;;10.07;;
3769;SDS011;1900;48.890;9.190;2022-12-20T07:15:17;16.37;;;10.10;;
3769;SDS011;1900;48.890;9.190;2022-12-20T07:17:43;14.87;;;9.30;;
3769;SDS011;1900;48.890;9.190;2022-12-20T07:20:09;14.90;;;9.57;;
3769;SDS011;1900;48.890;9.190;2022-12-20T07:22:35;15.17;;;9.13;;
3769;SDS011;1900;48.890;9.190;2022-12-20T07:25:00;13.40;;;8.57;;
3769;SDS011;1900;48.890;9.190;2022-12-20T07:27:26;15.83;;;9.57;;
3769;SDS011;1900;48.890;9.190;2022-12-20T07:29:51;13.50;;;9.00;;
3769;SDS011;1900;48.890;9.190;2022-12-20T07:32:20;14.20;;;9.43;;
3769;SDS011;1900;48.890;9.190;2022-12-20T07:34:45;15.47;;;9.70;;
3769;SDS011;1900;48.890;9.190;2022-12-20T07:37:11;12.73;;;8.83;;
3769;SDS011;1900;48.890;9.190;2022-12-20T07:39:37;18.03;;;10.13;;
3769;SDS011;1900;48.890;9.190;2022-12-20T07:42:02;17.83;;;9.50;;
3769;SDS011;1900;48.890;9.190;2022-12-20T07:44:39;13.90;;;9.60;;
3769;SDS011;1900;48.890;9.190;2022-12-20T07:47:07;13.93;;;9.93;;
3769;SDS011;1900;48.890;9.190;2022-12-20T07:49:34;16.07;;;10.20;;
3769;SDS011;1900;48.890;9.190;2022-12-20T07:52:01;15.87;;;9.00;;
3769;SDS011;1900;48.890;9.190;2022-12-20T07:54:32;14.70;;;8.50;;
3769;SDS011;1900;48.890;9.190;2022-12-20T07:57:05;13.90;;;9.00;;
3769;SDS011;1900;48.890;9.190;2022-12-20T07:59:37;16.97;;;10.00;;
3769;SDS011;1900;48.890;9.190;2022-12-20T08:02:06;14.53;;;10.03;;
3769;SDS011;1900;48.890;9.190;2022-12-20T08:04:37;16.27;;;9.70;;
3769;SDS011;1900;48.890;9.190;2022-12-20T08:07:03;15.67;;;8.60;;
3769;SDS011;1900;48.890;9.190;2022-12-20T08:09:30;13.60;;;8.40;;
3769;SDS011;1900;48.890;9.190;2022-12-20T08:12:01;14.70;;;9.37;;
3769;SDS011;1900;48.890;9.190;2022-12-20T08:14:27;13.67;;;9.00;;
3769;SDS011;1900;48.890;9.190;2022-12-20T08:16:53;14.10;;;8.80;;
3769;SDS011;1900;48.890;9.190;2022-12-20T08:19:18;13.47;;;8.83;;
3769;SDS011;1900;48.890;9.190;2022-12-20T08:21:44;17.47;;;8.73;;
3769;SDS011;1900;48.890;9.190;2022-12-20T08:24:10;13.80;;;9.07;;
3769;SDS011;1900;48.890;9.190;2022-12-20T08:26:36;14.23;;;8.87;;
3769;SDS011;1900;48.890;9.190;2022-12-20T08:29:05;15.70;;;8.90;;
3769;SDS011;1900;48.890;9.190;2022-12-20T08:31:35;16.37;;;8.90;;
3769;SDS011;1900;48.890;9.190;2022-12-20T08:34:05;17.73;;;9.10;;
3769;SDS011;1900;48.890;9.190;2022-12-20T08:36:30;13.00;;;8.47;;
3769;SDS011;1900;48.890;9.190;2022-12-20T08:38:56;17.70;;;10.80;;
3769;SDS011;1900;48.890;9.190;2022-12-20T08:41:22;20.43;;;12.50;;
3769;SDS011;1900;48.890;9.190;2022-12-20T08:43:50;15.80;;;9.70;;
3769;SDS011;1900;48.890;9.190;2022-12-20T08:46:16;16.57;;;9.80;;
3769;SDS011;1900;48.890;9.190;2022-12-20T08:48:42;13.60;;;9.70;;
3769;SDS011;1900;48.890;9.190;2022-12-20T08:51:08;13.33;;;8.73;;
3769;SDS011;1900;48.890;9.190;2022-12-20T08:53:35;18.87;;;9.90;;
3769;SDS011;1900;48.890;9.190;2022-12-20T08:56:03;13.97;;;9.13;;
3769;SDS011;1900;48.890;9.190;2022-12-20T08:58:34;14.53;;;8.90;;
3769;SDS011;1900;48.890;9.190;2022-12-20T09:01:00;12.50;;;8.53;;
3769;SDS011;1900;48.890;9.190;2022-12-20T09:03:31;14.90;;;8.83;;
3769;SDS011;1900;48.890;9.190;2022-12-20T09:05:58;12.53;;;8.67;;
3769;SDS011;1900;48.890;9.190;2022-12-20T09:08:24;11.60;;;7.80;;
3769;SDS011;1900;48.890;9.190;2022-12-20T09:10:50;13.40;;;8.70;;
3769;SDS011;1900;48.890;9.190;2022-12-20T09:13:17;11.13;;;6.73;;
3769;SDS011;1900;48.890;9.190;2022-12-20T09:15:43;13.00;;;8.60;;
3769;SDS011;1900;48.890;9.190;2022-12-20T09:18:09;14.83;;;7.73;;
3769;SDS011;1900;48.890;9.190;2022-12-20T09:20:35;11.50;;;7.43;;
3769;SDS011;1900;48.890;9.190;2022-12-20T09:23:08;10.97;;;7.20;;
3769;SDS011;1900;48.890;9.190;2022-12-20T09:25:34;14.53;;;7.57;;
3769;SDS011;1900;48.890;9.190;2022-12-20T09:28:01;10.53;;;7.53;;
3769;SDS011;1900;48.890;9.190;2022-12-20T09:30:28;11.13;;;7.00;;
3769;SDS011;1900;48.890;9.190;2022-12-20T09:32:54;11.77;;;6.77;;
3769;SDS011;1900;48.890;9.190;2022-12-20T09:35:21;21.53;;;13.67;;
3769;SDS011;1900;48.890;9.190;2022-12-20T09:37:47;11.43;;;7.60;;
3769;SDS011;1900;48.890;9.190;2022-12-20T09:40:17;18.40;;;7.47;;
3769;SDS011;1900;48.890;9.190;2022-12-20T09:42:45;12.60;;;7.40;;
3769;SDS011;1900;48.890;9.190;2022-12-20T09:45:16;11.83;;;7.30;;
3769;SDS011;1900;48.890;9.190;2022-12-20T09:47:54;18.20;;;6.13;;
3769;SDS011;1900;48.890;9.190;2022-12-20T09:50:20;19.53;;;8.50;;
3769;SDS011;1900;48.890;9.190;2022-12-20T09:55:53;14.53;;;7.50;;
3769;SDS011;1900;48.890;9.190;2022-12-20T09:58:31;12.63;;;7.40;;
3769;SDS011;1900;48.890;9.190;2022-12-20T10:01:03;10.50;;;7.23;;
3769;SDS011;1900;48.890;9.190;2022-12-20T10:03:41;12.20;;;7.70;;
3769;SDS011;1900;48.890;9.190;2022-12-20T10:06:16;10.37;;;6.93;;
3769;SDS011;1900;48.890;9.190;2022-12-20T10:09:02;12.73;;;6.67;;
3769;SDS011;1900;48.890;9.190;2022-12-20T10:14:56;12.37;;;6.80;;
3769;SDS011;1900;48.890;9.190;2022-12-20T10:17:08;13.60;;;7.30;;
3769;SDS011;1900;48.890;9.190;2022-12-20T10:19:54;9.23;;;6.60;;
3769;SDS011;1900;48.890;9.190;2022-12-20T10:25:20;8.50;;;6.20;;
3769;SDS011;1900;48.890;9.190;2022-12-20T10:27:47;13.50;;;6.57;;
3769;SDS011;1900;48.890;9.190;2022-12-20T10:30:19;11.40;;;5.90;;
3769;SDS011;1900;48.890;9.190;2022-12-20T10:32:47;9.83;;;6.50;;
3769;SDS011;1900;48.890;9.190;2022-12-20T10:40:31;12.77;;;7.27;;
3769;SDS011;1900;48.890;9.190;2022-12-20T10:43:01;9.77;;;6.53;;
3769;SDS011;1900;48.890;9.190;2022-12-20T10:48:00;15.93;;;6.70;;
3769;SDS011;1900;48.890;9.190;2022-12-20T10:50:28;9.80;;;6.53;;
3769;SDS011;1900;48.890;9.190;2022-12-20T10:58:04;14.10;;;5.70;;
3769;SDS011;1900;48.890;9.190;2022-12-20T11:00:36;8.87;;;6.57;;
3769;SDS011;1900;48.890;9.190;2022-12-20T11:03:19;9.00;;;5.90;;
3769;SDS011;1900;48.890;9.190;2022-12-20T11:05:54;9.00;;;6.33;;
3769;SDS011;1900;48.890;9.190;2022-12-20T11:08:26;11.37;;;6.10;;
3769;SDS011;1900;48.890;9.190;2022-12-20T11:13:45;9.07;;;7.20;;
3769;SDS011;1900;48.890;9.190;2022-12-20T11:24:56;10.80;;;7.47;;
3769;SDS011;1900;48.890;9.190;2022-12-20T11:27:26;15.20;;;6.40;;
3769;SDS011;1900;48.890;9.190;2022-12-20T11:38:16;10.47;;;6.07;;
3769;SDS011;1900;48.890;9.190;2022-12-20T11:43:45;14.47;;;7.40;;
3769;SDS011;1900;48.890;9.190;2022-12-20T11:51:58;11.73;;;6.93;;
3769;SDS011;1900;48.890;9.190;2022-12-20T11:57:12;10.50;;;6.93;;
3769;SDS011;1900;48.890;9.190;2022-12-20T11:59:55;10.50;;;7.17;;
3769;SDS011;1900;48.890;9.190;2022-12-20T12:02:27;8.43;;;6.77;;
3769;SDS011;1900;48.890;9.190;2022-12-20T12:04:57;10.53;;;6.80;;
3769;SDS011;1900;48.890;9.190;2022-12-20T12:07:30;10.40;;;6.93;;
3769;SDS011;1900;48.890;9.190;2022-12-20T12:10:33;9.80;;;5.87;;
3769;SDS011;1900;48.890;9.190;2022-12-20T12:15:51;13.60;;;6.43;;
3769;SDS011;1900;48.890;9.190;2022-12-20T12:18:28;9.53;;;6.50;;
3769;SDS011;1900;48.890;9.190;2022-12-20T12:26:33;12.30;;;7.40;;
3769;SDS011;1900;48.890;9.190;2022-12-20T12:29:18;11.67;;;7.27;;
3769;SDS011;1900;48.890;9.190;2022-12-20T12:32:03;10.33;;;6.50;;
3769;SDS011;1900;48.890;9.190;2022-12-20T12:45:57;11.40;;;6.67;;
3769;SDS011;1900;48.890;9.190;2022-12-20T12:51:08;14.77;;;7.27;;
3769;SDS011;1900;48.890;9.190;2022-12-20T12:53:44;10.90;;;6.87;;
3769;SDS011;1900;48.890;9.190;2022-12-20T13:11:46;9.30;;;6.60;;
3769;SDS011;1900;48.890;9.190;2022-12-20T13:16:44;9.27;;;5.80;;
3769;SDS011;1900;48.890;9.190;2022-12-20T13:21:45;8.50;;;5.63;;
3769;SDS011;1900;48.890;9.190;2022-12-20T13:43:02;8.53;;;6.13;;
3769;SDS011;1900;48.890;9.190;2022-12-20T13:45:39;9.70;;;7.57;;
3769;SDS011;1900;48.890;9.190;2022-12-20T13:48:09;14.70;;;6.90;;
3769;SDS011;1900;48.890;9.190;2022-12-20T13:50:48;10.63;;;6.60;;
3769;SDS011;1900;48.890;9.190;2022-12-20T13:53:18;12.53;;;6.60;;
3769;SDS011;1900;48.890;9.190;2022-12-20T13:55:46;9.17;;;6.40;;
3769;SDS011;1900;48.890;9.190;2022-12-20T13:58:17;13.83;;;7.40;;
3769;SDS011;1900;48.890;9.190;2022-12-20T14:01:06;10.90;;;6.90;;
3769;SDS011;1900;48.890;9.190;2022-12-20T14:03:41;12.53;;;6.77;;
3769;SDS011;1900;48.890;9.190;2022-12-20T14:06:10;8.77;;;6.30;;
3769;SDS011;1900;48.890;9.190;2022-12-20T14:08:39;8.83;;;6.33;;
3769;SDS011;1900;48.890;9.190;2022-12-20T14:13:49;12.63;;;6.60;;
3769;SDS011;1900;48.890;9.190;2022-12-20T14:16:22;12.60;;;5.80;;
3769;SDS011;1900;48.890;9.190;2022-12-20T14:18:52;11.67;;;5.73;;
3769;SDS011;1900;48.890;9.190;2022-12-20T14:21:33;10.33;;;6.20;;
3769;SDS011;1900;48.890;9.190;2022-12-20T14:24:04;11.20;;;5.67;;
3769;SDS011;1900;48.890;9.190;2022-12-20T14:26:41;9.97;;;5.10;;
3769;SDS011;1900;48.890;9.190;2022-12-20T14:29:10;13.83;;;5.33;;
3769;SDS011;1900;48.890;9.190;2022-12-20T14:31:40;10.53;;;5.47;;
3769;SDS011;1900;48.890;9.190;2022-12-20T14:36:40;7.10;;;5.13;;
3769;SDS011;1900;48.890;9.190;2022-12-20T14:41:54;9.70;;;5.73;;
3769;SDS011;1900;48.890;9.190;2022-12-20T14:44:21;8.37;;;4.90;;
3769;SDS011;1900;48.890;9.190;2022-12-20T14:46:48;6.70;;;4.90;;
3769;SDS011;1900;48.890;9.190;2022-12-20T14:51:46;6.73;;;4.80;;
3769;SDS011;1900;48.890;9.190;2022-12-20T14:54:16;9.63;;;5.20;;
3769;SDS011;1900;48.890;9.190;2022-12-20T14:56:45;9.73;;;5.07;;
3769;SDS011;1900;48.890;9.190;2022-12-20T14:59:13;10.20;;;5.83;;
3769;SDS011;1900;48.890;9.190;2022-12-20T15:01:41;10.70;;;6.30;;
3769;SDS011;1900;48.890;9.190;2022-12-20T15:04:21;8.00;;;5.40;;
3769;SDS011;1900;48.890;9.190;2022-12-20T15:06:47;17.23;;;5.40;;
3769;SDS011;1900;48.890;9.190;2022-12-20T15:09:13;11.30;;;6.33;;
3769;SDS011;1900;48.890;9.190;2022-12-20T15:11:40;9.80;;;6.00;;
3769;SDS011;1900;48.890;9.190;2022-12-20T15:16:52;9.80;;;5.60;;
3769;SDS011;1900;48.890;9.190;2022-12-20T15:19:18;9.63;;;6.40;;
3769;SDS011;1900;48.890;9.190;2022-12-20T15:21:44;8.30;;;5.93;;
3769;SDS011;1900;48.890;9.190;2022-12-20T15:24:11;12.13;;;6.20;;
3769;SDS011;1900;48.890;9.190;2022-12-20T15:26:42;12.30;;;5.50;;
3769;SDS011;1900;48.890;9.190;2022-12-20T15:29:18;17.10;;;6.40;;
3769;SDS011;1900;48.890;9.190;2022-12-20T15:31:48;11.03;;;6.33;;
3769;SDS011;1900;48.890;9.190;2022-12-20T15:36:46;14.50;;;6.83;;
3769;SDS011;1900;48.890;9.190;2022-12-20T15:39:12;20.03;;;8.10;;
3769;SDS011;1900;48.890;9.190;2022-12-20T15:41:39;8.80;;;6.53;;
3769;SDS011;1900;48.890;9.190;2022-12-20T15:44:10;10.47;;;7.17;;
3769;SDS011;1900;48.890;9.190;2022-12-20T15:46:41;10.73;;;6.37;;
3769;SDS011;1900;48.890;9.190;2022-12-20T15:49:18;13.90;;;7.80;;
3769;SDS011;1900;48.890;9.190;2022-12-20T15:51:46;10.10;;;7.60;;
3769;SDS011;1900;48.890;9.190;2022-12-20T15:54:23;14.27;;;8.27;;
3769;SDS011;1900;48.890;9.190;2022-12-20T15:56:55;12.00;;;7.77;;
3769;SDS011;1900;48.890;9.190;2022-12-20T15:59:21;13.83;;;8.03;;
3769;SDS011;1900;48.890;9.190;2022-12-20T16:01:47;17.17;;;7.03;;
3769;SDS011;1900;48.890;9.190;2022-12-20T16:04:17;14.10;;;7.57;;
3769;SDS011;1900;48.890;9.190;2022-12-20T16:06:44;9.80;;;6.80;;
3769;SDS011;1900;48.890;9.190;2022-12-20T16:09:12;12.17;;;8.27;;
3769;SDS011;1900;48.890;9.190;2022-12-20T16:11:38;16.90;;;8.23;;
3769;SDS011;1900;48.890;9.190;2022-12-20T16:14:04;15.27;;;10.10;;
3769;SDS011;1900;48.890;9.190;2022-12-20T16:16:32;20.50;;;12.53;;
3769;SDS011;1900;48.890;9.190;2022-12-20T16:18:59;27.57;;;12.60;;
3769;SDS011;1900;48.890;9.190;2022-12-20T16:21:39;18.33;;;10.37;;
3769;SDS011;1900;48.890;9.190;2022-12-20T16:24:10;43.33;;;18.10;;
3769;SDS011;1900;48.890;9.190;2022-12-20T16:26:37;39.33;;;16.00;;
3769;SDS011;1900;48.890;9.190;2022-12-20T16:29:03;35.13;;;14.80;;
3769;SDS011;1900;48.890;9.190;2022-12-20T16:31:36;29.87;;;12.67;;
3769;SDS011;1900;48.890;9.190;2022-12-20T16:34:12;72.73;;;24.50;;
3769;SDS011;1900;48.890;9.190;2022-12-20T16:36:42;28.00;;;14.00;;
3769;SDS011;1900;48.890;9.190;2022-12-20T16:39:08;28.90;;;13.33;;
3769;SDS011;1900;48.890;9.190;2022-12-20T16:41:35;48.00;;;20.87;;
3769;SDS011;1900;48.890;9.190;2022-12-20T16:44:03;35.43;;;16.97;;
3769;SDS011;1900;48.890;9.190;2022-12-20T16:46:29;47.90;;;16.93;;
3769;SDS011;1900;48.890;9.190;2022-12-20T16:48:57;37.70;;;17.20;;
3769;SDS011;1900;48.890;9.190;2022-12-20T16:51:25;16.93;;;9.37;;
3769;SDS011;1900;48.890;9.190;2022-12-20T16:53:55;15.63;;;10.07;;
3769;SDS011;1900;48.890;9.190;2022-12-20T16:56:22;27.77;;;12.93;;
3769;SDS011;1900;48.890;9.190;2022-12-20T16:58:49;25.00;;;13.83;;
3769;SDS011;1900;48.890;9.190;2022-12-20T17:01:15;24.03;;;12.83;;
3769;SDS011;1900;48.890;9.190;2022-12-20T17:03:46;23.73;;;12.27;;
3769;SDS011;1900;48.890;9.190;2022-12-20T17:06:12;16.60;;;9.90;;
3769;SDS011;1900;48.890;9.190;2022-12-20T17:08:39;22.57;;;11.80;;
3769;SDS011;1900;48.890;9.190;2022-12-20T17:11:24;14.30;;;8.90;;
3769;SDS011;1900;48.890;9.190;2022-12-20T17:13:52;14.07;;;7.93;;
3769;SDS011;1900;48.890;9.190;2022-12-20T17:16:20;11.93;;;7.93;;
3769;SDS011;1900;48.890;9.190;2022-12-20T17:18:46;13.83;;;9.30;;
3769;SDS011;1900;48.890;9.190;2022-12-20T17:24:04;14.80;;;10.40;;
3769;SDS011;1900;48.890;9.190;2022-12-20T17:26:37;12.83;;;9.27;;
3769;SDS011;1900;48.890;9.190;2022-12-20T17:29:03;18.03;;;9.20;;
3769;SDS011;1900;48.890;9.190;2022-12-20T17:31:33;13.13;;;8.53;;
3769;SDS011;1900;48.890;9.190;2022-12-20T17:34:14;16.97;;;10.30;;
3769;SDS011;1900;48.890;9.190;2022-12-20T17:36:42;18.43;;;9.90;;
3769;SDS011;1900;48.890;9.190;2022-12-20T17:39:09;27.77;;;15.80;;
3769;SDS011;1900;48.890;9.190;2022-12-20T17:41:35;18.50;;;10.87;;
3769;SDS011;1900;48.890;9.190;2022-12-20T17:44:01;17.90;;;11.87;;
3769;SDS011;1900;48.890;9.190;2022-12-20T17:46:28;15.17;;;10.60;;